createdAt,value
2023-05-22T00:00:22.853Z,35.34
2023-05-22T00:01:22.904Z,35.31
2023-05-22T00:02:23.012Z,35.38
2023-05-22T00:03:23.046Z,35.33
2023-05-22T00:04:23.062Z,35.33
2023-05-22T00:05:23.168Z,35.35
2023-05-22T00:06:23.196Z,35.34
2023-05-22T00:07:23.279Z,35.32
2023-05-22T00:08:23.324Z,35.31
2023-05-22T00:09:23.390Z,35.33
2023-05-22T00:10:23.461Z,35.34
2023-05-22T00:11:23.521Z,35.33
2023-05-22T00:12:23.614Z,35.33
2023-05-22T00:13:23.655Z,35.31
2023-05-22T00:14:23.731Z,35.33
2023-05-22T00:15:23.797Z,35.33
2023-05-22T00:16:23.897Z,35.35
2023-05-22T00:17:24.051Z,35.34
2023-05-22T00:18:24.010Z,35.35
2023-05-22T00:19:24.131Z,35.28
2023-05-22T00:20:24.175Z,35.37
2023-05-22T00:21:24.233Z,35.33
2023-05-22T00:22:24.301Z,35.30
2023-05-22T00:23:24.368Z,35.35
2023-05-22T00:24:24.440Z,35.36
2023-05-22T00:25:24.515Z,35.38
2023-05-22T00:26:24.588Z,35.36
2023-05-22T00:27:24.666Z,35.38
2023-05-22T00:28:24.753Z,35.35
2023-05-22T00:29:24.800Z,35.34
2023-05-22T00:30:24.867Z,35.36
2023-05-22T00:31:24.943Z,35.32
2023-05-22T00:32:25.012Z,35.35
2023-05-22T00:33:25.061Z,35.39
2023-05-22T00:34:25.179Z,35.35
2023-05-22T00:35:25.262Z,35.34
2023-05-22T00:36:25.289Z,35.34
2023-05-22T00:37:25.379Z,35.35
2023-05-22T00:38:25.432Z,35.34
2023-05-22T00:39:25.507Z,35.32
2023-05-22T00:40:25.562Z,35.36
2023-05-22T00:41:25.642Z,35.36
2023-05-22T00:42:25.715Z,35.31
2023-05-22T00:43:25.778Z,35.38
2023-05-22T00:44:25.910Z,35.35
2023-05-22T00:45:25.947Z,35.36
2023-05-22T00:46:26.158Z,35.38
2023-05-22T00:47:26.135Z,35.38
2023-05-22T00:48:26.138Z,35.35
2023-05-22T00:49:26.214Z,35.39
2023-05-22T00:50:26.287Z,35.39
2023-05-22T00:51:26.358Z,35.32
2023-05-22T00:52:26.422Z,35.31
2023-05-22T00:53:26.509Z,35.28
2023-05-22T00:54:26.577Z,35.38
2023-05-22T00:55:26.644Z,35.35
2023-05-22T00:56:26.700Z,35.35
2023-05-22T00:57:26.780Z,35.35
2023-05-22T00:58:26.876Z,35.32
2023-05-22T00:59:26.935Z,35.38
2023-05-22T01:00:27.022Z,35.36
2023-05-22T01:01:27.092Z,35.32
2023-05-22T01:02:27.139Z,35.36
2023-05-22T01:03:27.710Z,35.31
2023-05-22T01:04:27.281Z,35.35
2023-05-22T01:05:27.355Z,35.32
2023-05-22T01:06:27.428Z,35.34
2023-05-22T01:07:27.505Z,35.32
2023-05-22T01:08:27.576Z,35.36
2023-05-22T01:09:27.643Z,35.35
2023-05-22T01:10:27.708Z,35.34
2023-05-22T01:11:27.779Z,35.35
2023-05-22T01:12:27.851Z,35.33
2023-05-22T01:13:27.925Z,35.38
2023-05-22T01:14:27.996Z,35.34
2023-05-22T01:15:28.067Z,35.35
2023-05-22T01:16:28.198Z,35.35
2023-05-22T01:17:28.233Z,35.32
2023-05-22T01:18:28.287Z,35.32
2023-05-22T01:19:28.390Z,35.35
2023-05-22T01:20:28.422Z,35.35
2023-05-22T01:21:28.496Z,35.39
2023-05-22T01:22:28.564Z,35.32
2023-05-22T01:23:28.643Z,35.35
2023-05-22T01:24:28.718Z,35.29
2023-05-22T01:25:28.788Z,35.35
2023-05-22T01:26:28.877Z,35.33
2023-05-22T01:27:28.931Z,35.36
2023-05-22T01:28:29.006Z,35.32
2023-05-22T01:29:29.078Z,35.33
2023-05-22T01:30:29.158Z,35.36
2023-05-22T01:31:29.226Z,35.33
2023-05-22T01:32:29.363Z,35.38
2023-05-22T01:33:29.504Z,35.40
2023-05-22T01:34:29.453Z,35.40
2023-05-22T01:35:29.533Z,35.39
2023-05-22T01:36:29.604Z,35.39
2023-05-22T01:37:29.679Z,35.41
2023-05-22T01:38:29.757Z,35.36
2023-05-22T01:39:29.827Z,35.40
2023-05-22T01:40:29.889Z,35.37
2023-05-22T01:41:29.991Z,35.39
2023-05-22T01:42:30.038Z,35.34
2023-05-22T01:43:30.116Z,35.35
2023-05-22T01:44:30.183Z,35.35
2023-05-22T01:45:30.279Z,35.36
2023-05-22T01:46:30.362Z,35.40
2023-05-22T01:47:30.419Z,35.37
2023-05-22T01:48:30.570Z,35.37
2023-05-22T01:49:30.546Z,35.36
2023-05-22T01:50:30.609Z,35.32
2023-05-22T01:51:30.678Z,35.39
2023-05-22T01:52:30.759Z,35.37
2023-05-22T01:53:30.823Z,35.39
2023-05-22T01:54:30.902Z,35.39
2023-05-22T01:55:30.970Z,35.36
2023-05-22T01:56:31.086Z,35.37
2023-05-22T01:57:31.125Z,35.37
2023-05-22T01:58:31.202Z,35.40
2023-05-22T01:59:31.276Z,35.39
2023-05-22T02:00:31.350Z,35.43
2023-05-22T02:01:31.465Z,35.32
2023-05-22T02:02:31.553Z,35.40
2023-05-22T02:03:31.651Z,35.39
2023-05-22T02:04:31.670Z,35.36
2023-05-22T02:05:31.730Z,35.36
2023-05-22T02:06:31.784Z,35.40
2023-05-22T02:07:31.867Z,35.36
2023-05-22T02:08:31.936Z,35.39
2023-05-22T02:09:32.018Z,35.40
2023-05-22T02:10:32.096Z,35.40
2023-05-22T02:11:32.171Z,35.32
2023-05-22T02:12:32.252Z,35.36
2023-05-22T02:13:32.317Z,35.42
2023-05-22T02:14:32.408Z,35.37
2023-05-22T02:15:32.484Z,35.41
2023-05-22T02:16:32.534Z,35.40
2023-05-22T02:17:32.618Z,35.38
2023-05-22T02:18:32.677Z,35.40
2023-05-22T02:19:32.796Z,35.37
2023-05-22T02:20:32.940Z,35.35
2023-05-22T02:21:32.890Z,35.42
2023-05-22T02:22:32.965Z,35.35
2023-05-22T02:23:33.052Z,35.38
2023-05-22T02:24:33.107Z,35.41
2023-05-22T02:25:33.172Z,35.40
2023-05-22T02:26:33.232Z,35.33
2023-05-22T02:27:33.275Z,35.40
2023-05-22T02:28:33.344Z,35.40
2023-05-22T02:29:33.410Z,35.41
2023-05-22T02:30:33.481Z,35.38
2023-05-22T02:31:33.601Z,35.44
2023-05-22T02:32:33.643Z,35.40
2023-05-22T02:33:33.685Z,35.35
2023-05-22T02:34:33.756Z,35.38
2023-05-22T02:35:33.823Z,35.40
2023-05-22T02:36:33.941Z,35.42
2023-05-22T02:37:33.972Z,35.41
2023-05-22T02:38:34.041Z,35.39
2023-05-22T02:39:34.114Z,35.37
2023-05-22T02:40:34.194Z,35.40
2023-05-22T02:41:34.258Z,35.37
2023-05-22T02:42:34.348Z,35.42
2023-05-22T02:43:34.393Z,35.37
2023-05-22T02:44:34.482Z,35.42
2023-05-22T02:45:34.536Z,35.40
2023-05-22T02:46:34.658Z,35.37
2023-05-22T02:47:34.747Z,35.42
2023-05-22T02:48:34.779Z,35.42
2023-05-22T02:49:34.856Z,35.37
2023-05-22T02:50:34.922Z,35.38
2023-05-22T02:51:34.998Z,35.41
2023-05-22T02:52:35.188Z,35.42
2023-05-22T02:53:35.155Z,35.37
2023-05-22T02:54:35.226Z,35.38
2023-05-22T02:55:35.327Z,35.34
2023-05-22T02:56:35.382Z,35.39
2023-05-22T02:57:35.462Z,35.42
2023-05-22T02:58:35.558Z,35.43
2023-05-22T02:59:35.655Z,35.40
2023-05-22T03:00:35.704Z,35.42
2023-05-22T03:01:35.825Z,35.38
2023-05-22T03:02:35.889Z,35.38
2023-05-22T03:03:36.002Z,35.40
2023-05-22T03:04:36.025Z,35.43
2023-05-22T03:05:36.103Z,35.42
2023-05-22T03:06:36.178Z,35.39
2023-05-22T03:07:36.250Z,35.42
2023-05-22T03:08:36.352Z,35.41
2023-05-22T03:09:36.397Z,35.40
2023-05-22T03:10:36.576Z,35.37
2023-05-22T03:11:36.546Z,35.42
2023-05-22T03:12:36.606Z,35.38
2023-05-22T03:13:36.671Z,35.42
2023-05-22T03:14:36.731Z,35.39
2023-05-22T03:15:36.789Z,35.43
2023-05-22T03:16:36.899Z,35.41
2023-05-22T03:17:36.946Z,35.39
2023-05-22T03:18:36.981Z,35.42
2023-05-22T03:19:37.079Z,35.38
2023-05-22T03:20:37.377Z,35.42
2023-05-22T03:21:37.224Z,35.39
2023-05-22T03:22:37.298Z,35.42
2023-05-22T03:23:37.381Z,35.44
2023-05-22T03:24:37.480Z,35.42
2023-05-22T03:25:37.530Z,35.44
2023-05-22T03:26:37.647Z,35.42
2023-05-22T03:27:37.692Z,35.44
2023-05-22T03:28:37.854Z,35.40
2023-05-22T03:29:37.848Z,35.42
2023-05-22T03:30:38.215Z,35.38
2023-05-22T03:31:38.008Z,35.40
2023-05-22T03:32:38.142Z,35.38
2023-05-22T03:33:38.216Z,35.42
2023-05-22T03:34:38.260Z,35.44
2023-05-22T03:35:38.344Z,35.42
2023-05-22T03:36:38.399Z,35.39
2023-05-22T03:37:38.484Z,35.38
2023-05-22T03:38:38.571Z,35.40
2023-05-22T03:39:38.645Z,35.40
2023-05-22T03:40:39.096Z,35.40
2023-05-22T03:41:38.800Z,35.42
2023-05-22T03:42:38.873Z,35.40
2023-05-22T03:43:38.958Z,35.44
2023-05-22T03:44:39.030Z,35.43
2023-05-22T03:45:39.157Z,35.40
2023-05-22T03:46:39.187Z,35.43
2023-05-22T03:47:39.292Z,35.40
2023-05-22T03:48:39.337Z,35.42
2023-05-22T03:49:39.414Z,35.41
2023-05-22T03:50:39.699Z,35.44
2023-05-22T03:51:39.581Z,35.46
2023-05-22T03:52:39.659Z,35.42
2023-05-22T03:53:39.736Z,35.40
2023-05-22T03:54:39.812Z,35.43
2023-05-22T03:55:39.895Z,35.39
2023-05-22T03:56:40.095Z,35.42
2023-05-22T03:57:40.053Z,35.35
2023-05-22T03:58:40.142Z,35.38
2023-05-22T03:59:40.238Z,35.39
2023-05-22T04:00:40.497Z,35.37
2023-05-22T04:01:40.386Z,35.42
2023-05-22T04:02:40.518Z,35.40
2023-05-22T04:03:40.577Z,35.36
2023-05-22T04:04:40.659Z,35.41
2023-05-22T04:05:40.690Z,35.40
2023-05-22T04:06:40.760Z,35.39
2023-05-22T04:07:40.847Z,35.42
2023-05-22T04:08:40.903Z,35.35
2023-05-22T04:09:40.996Z,35.38
2023-05-22T04:10:41.219Z,35.37
2023-05-22T04:11:41.133Z,35.38
2023-05-22T04:12:41.310Z,35.40
2023-05-22T04:13:41.292Z,35.40
2023-05-22T04:14:41.377Z,35.38
2023-05-22T04:15:41.471Z,35.38
2023-05-22T04:16:41.519Z,35.38
2023-05-22T04:17:41.641Z,35.42
2023-05-22T04:18:41.683Z,35.38
2023-05-22T04:19:41.753Z,35.35
2023-05-22T04:20:42.022Z,35.38
2023-05-22T04:21:41.907Z,35.39
2023-05-22T04:22:42.019Z,35.42
2023-05-22T04:23:42.063Z,35.38
2023-05-22T04:24:42.146Z,35.32
2023-05-22T04:25:42.219Z,35.38
2023-05-22T04:26:42.653Z,35.34
2023-05-22T04:27:42.387Z,35.37
2023-05-22T04:28:42.478Z,35.38
2023-05-22T04:29:42.531Z,35.35
2023-05-22T04:30:42.893Z,35.35
2023-05-22T04:31:42.820Z,35.38
2023-05-22T04:32:42.807Z,35.35
2023-05-22T04:33:42.865Z,35.34
2023-05-22T04:34:42.930Z,35.37
2023-05-22T04:35:43.007Z,35.33
2023-05-22T04:36:43.076Z,35.35
2023-05-22T04:37:43.152Z,35.35
2023-05-22T04:38:43.222Z,35.35
2023-05-22T04:39:43.294Z,35.31
2023-05-22T04:40:43.375Z,35.35
2023-05-22T04:41:43.439Z,35.34
2023-05-22T04:42:43.513Z,35.30
2023-05-22T04:43:43.601Z,35.31
2023-05-22T04:44:43.783Z,35.33
2023-05-22T04:45:43.752Z,35.26
2023-05-22T04:46:43.949Z,35.33
2023-05-22T04:47:43.944Z,35.32
2023-05-22T04:48:43.985Z,35.34
2023-05-22T04:49:44.065Z,35.33
2023-05-22T04:50:44.146Z,35.31
2023-05-22T04:51:44.235Z,35.28
2023-05-22T04:52:44.330Z,35.30
2023-05-22T04:53:44.400Z,35.28
2023-05-22T04:54:44.486Z,35.29
2023-05-22T04:55:44.550Z,35.30
2023-05-22T04:56:44.635Z,35.29
2023-05-22T04:57:44.736Z,35.26
2023-05-22T04:58:44.777Z,35.29
2023-05-22T04:59:44.925Z,35.25
2023-05-22T05:00:44.981Z,35.29
2023-05-22T05:01:45.123Z,35.29
2023-05-22T05:02:45.161Z,35.22
2023-05-22T05:03:45.206Z,35.29
2023-05-22T05:04:45.258Z,35.28
2023-05-22T05:05:45.310Z,35.25
2023-05-22T05:06:45.392Z,35.23
2023-05-22T05:07:47.164Z,35.21
2023-05-22T05:08:46.249Z,35.24
2023-05-22T05:09:45.490Z,35.21
2023-05-22T05:10:45.504Z,35.19
2023-05-22T05:11:45.518Z,35.10
2023-05-22T05:12:45.518Z,35.02
2023-05-22T05:13:45.546Z,35.03
2023-05-22T05:14:45.760Z,35.07
2023-05-22T05:15:45.557Z,35.02
2023-05-22T05:16:45.763Z,35.07
2023-05-22T05:17:45.647Z,34.94
2023-05-22T05:18:45.632Z,34.81
2023-05-22T05:19:45.666Z,34.83
2023-05-22T05:20:45.651Z,34.68
2023-05-22T05:21:45.688Z,34.69
2023-05-22T05:22:46.254Z,34.69
2023-05-22T05:23:45.850Z,34.62
2023-05-22T05:24:46.079Z,34.64
2023-05-22T05:25:45.997Z,34.57
2023-05-22T05:26:46.112Z,34.46
2023-05-22T05:27:46.148Z,34.47
2023-05-22T05:28:46.215Z,34.40
2023-05-22T05:29:46.280Z,34.34
2023-05-22T05:30:46.371Z,34.35
2023-05-22T05:31:46.483Z,34.31
2023-05-22T05:32:46.882Z,34.25
2023-05-22T05:33:46.606Z,34.22
2023-05-22T05:34:46.659Z,34.17
2023-05-22T05:35:46.770Z,34.14
2023-05-22T05:36:46.815Z,34.17
2023-05-22T05:37:46.884Z,34.11
2023-05-22T05:38:46.953Z,34.05
2023-05-22T05:39:47.020Z,34.01
2023-05-22T05:40:47.091Z,33.98
2023-05-22T05:41:47.155Z,33.94
2023-05-22T05:42:47.221Z,33.94
2023-05-22T05:43:47.293Z,33.95
2023-05-22T05:44:47.772Z,33.87
2023-05-22T05:45:47.457Z,33.89
2023-05-22T05:46:47.496Z,33.88
2023-05-22T05:47:47.819Z,33.89
2023-05-22T05:48:47.663Z,33.93
2023-05-22T05:49:47.774Z,33.91
2023-05-22T05:50:47.760Z,33.95
2023-05-22T05:51:47.824Z,33.92
2023-05-22T05:52:48.280Z,33.92
2023-05-22T05:53:47.948Z,34.02
2023-05-22T05:54:48.032Z,33.98
2023-05-22T05:55:48.070Z,33.96
2023-05-22T05:56:49.233Z,33.99
2023-05-22T05:57:48.213Z,34.15
2023-05-22T05:58:48.957Z,34.36
2023-05-22T05:59:51.546Z,34.30
2023-05-22T06:01:51.534Z,34.28
2023-05-22T06:03:03.986Z,34.25
2023-05-22T06:03:48.447Z,34.21
2023-05-22T06:04:48.820Z,34.25
2023-05-22T06:05:48.372Z,34.28
2023-05-22T06:06:55.754Z,34.25
2023-05-22T06:07:48.394Z,34.19
2023-05-22T06:08:55.756Z,34.19
2023-05-22T06:09:49.211Z,34.19
2023-05-22T06:11:03.965Z,34.18
2023-05-22T06:11:48.369Z,34.09
2023-05-22T06:12:48.368Z,34.10
2023-05-22T06:14:51.659Z,34.11
2023-05-22T06:15:51.690Z,34.09
2023-05-22T06:16:48.961Z,34.09
2023-05-22T06:17:51.735Z,34.06
2023-05-22T06:18:51.703Z,34.08
2023-05-22T06:19:49.533Z,34.03
2023-05-22T06:20:48.456Z,34.01
2023-05-22T06:21:52.304Z,34.00
2023-05-22T06:22:48.406Z,33.99
2023-05-22T06:23:48.414Z,34.02
2023-05-22T06:24:48.409Z,34.04
2023-05-22T06:25:51.653Z,33.99
2023-05-22T06:26:48.800Z,34.03
2023-05-22T06:28:04.019Z,34.06
2023-05-22T06:28:48.429Z,34.04
2023-05-22T06:29:48.434Z,34.04
2023-05-22T06:30:48.699Z,34.06
2023-05-22T06:31:48.486Z,34.03
2023-05-22T06:32:48.987Z,34.09
2023-05-22T06:33:48.574Z,34.05
2023-05-22T06:34:48.441Z,34.09
2023-05-22T06:35:48.458Z,34.06
2023-05-22T06:36:48.984Z,34.10
2023-05-22T06:37:48.453Z,34.09
2023-05-22T06:38:49.491Z,34.10
2023-05-22T06:39:48.458Z,34.10
2023-05-22T06:40:48.458Z,34.06
2023-05-22T06:41:48.896Z,34.09
2023-05-22T06:42:48.460Z,34.14
2023-05-22T06:43:55.929Z,34.14
2023-05-22T06:44:48.631Z,34.16
2023-05-22T06:45:48.535Z,34.13
2023-05-22T06:46:48.472Z,34.10
2023-05-22T06:47:48.871Z,34.12
2023-05-22T06:48:48.497Z,34.12
2023-05-22T06:49:48.480Z,34.10
2023-05-22T06:50:48.473Z,34.11
2023-05-22T06:51:48.501Z,34.10
2023-05-22T06:52:49.108Z,34.13
2023-05-22T06:53:48.527Z,34.09
2023-05-22T06:54:48.494Z,34.10
2023-05-22T06:55:48.525Z,34.06
2023-05-22T06:56:48.507Z,34.04
2023-05-22T06:57:48.804Z,34.09
2023-05-22T06:58:49.500Z,34.03
2023-05-22T06:59:48.916Z,34.03
2023-05-22T07:00:48.789Z,33.96
2023-05-22T07:01:48.671Z,33.96
2023-05-22T07:02:48.964Z,34.00
2023-05-22T07:03:48.547Z,33.98
2023-05-22T07:04:48.615Z,34.00
2023-05-22T07:05:48.580Z,33.95
2023-05-22T07:06:48.546Z,33.95
2023-05-22T07:07:48.552Z,33.90
2023-05-22T07:08:48.584Z,33.92
2023-05-22T07:09:48.691Z,33.89
2023-05-22T07:10:48.959Z,33.89
2023-05-22T07:11:48.566Z,33.85
2023-05-22T07:12:48.816Z,33.87
2023-05-22T07:13:48.621Z,33.83
2023-05-22T07:14:48.588Z,33.83
2023-05-22T07:15:48.602Z,33.80
2023-05-22T07:16:49.462Z,33.80
2023-05-22T07:17:48.716Z,33.84
2023-05-22T07:18:48.873Z,33.75
2023-05-22T07:19:48.715Z,33.78
2023-05-22T07:20:48.770Z,33.77
2023-05-22T07:21:48.773Z,33.75
2023-05-22T07:22:48.800Z,33.69
2023-05-22T07:23:49.309Z,33.72
2023-05-22T07:24:49.036Z,33.71
2023-05-22T07:25:48.889Z,33.67
2023-05-22T07:26:48.908Z,33.68
2023-05-22T07:27:48.948Z,33.73
2023-05-22T07:28:49.311Z,33.67
2023-05-22T07:29:49.074Z,33.64
2023-05-22T07:30:49.024Z,33.61
2023-05-22T07:31:56.557Z,33.62
2023-05-22T07:32:49.209Z,33.57
2023-05-22T07:33:49.376Z,33.60
2023-05-22T07:34:49.085Z,33.59
2023-05-22T07:35:49.122Z,33.66
2023-05-22T07:36:49.099Z,33.78
2023-05-22T07:37:49.074Z,33.83
2023-05-22T07:40:56.618Z,34.36
2023-05-22T07:41:54.524Z,34.29
2023-05-22T07:42:49.506Z,34.37
2023-05-22T07:43:50.395Z,34.39
2023-05-22T07:44:50.224Z,34.38
2023-05-22T07:45:49.128Z,34.36
2023-05-22T07:47:07.767Z,34.34
2023-05-22T07:47:49.390Z,34.36
2023-05-22T07:48:49.126Z,34.40
2023-05-22T07:49:49.317Z,34.41
2023-05-22T07:50:49.108Z,34.48
2023-05-22T07:51:49.110Z,34.43
2023-05-22T07:52:50.121Z,34.49
2023-05-22T07:53:49.110Z,34.48
2023-05-22T07:54:52.508Z,34.51
2023-05-22T07:55:52.311Z,34.50
2023-05-22T07:56:56.771Z,34.68
2023-05-22T07:57:49.108Z,34.83
2023-05-22T07:58:50.361Z,34.75
2023-05-22T07:59:49.116Z,34.80
2023-05-22T08:00:49.101Z,35.05
2023-05-22T08:01:49.101Z,34.85
2023-05-22T08:02:49.444Z,34.87
2023-05-22T08:03:49.409Z,34.89
2023-05-22T08:04:49.451Z,34.94
2023-05-22T08:05:49.442Z,34.96
2023-05-22T08:06:49.085Z,34.92
2023-05-22T08:07:49.140Z,34.97
2023-05-22T08:08:49.353Z,34.88
2023-05-22T08:09:49.195Z,34.95
2023-05-22T08:11:02.877Z,34.95
2023-05-22T08:11:49.221Z,34.92
2023-05-22T08:12:49.366Z,35.04
2023-05-22T08:13:52.516Z,34.91
2023-05-22T08:14:49.189Z,34.83
2023-05-22T08:15:49.191Z,34.81
2023-05-22T08:16:50.235Z,34.75
2023-05-22T08:17:49.189Z,34.78
2023-05-22T08:18:49.366Z,34.77
2023-05-22T08:19:49.223Z,34.76
2023-05-22T08:20:49.096Z,34.68
2023-05-22T08:21:49.082Z,34.68
2023-05-22T08:22:49.069Z,34.54
2023-05-22T08:23:49.326Z,34.49
2023-05-22T08:24:49.140Z,34.48
2023-05-22T08:25:49.188Z,34.47
2023-05-22T08:26:49.219Z,34.44
2023-05-22T08:27:49.284Z,34.34
2023-05-22T08:28:49.853Z,34.35
2023-05-22T08:29:49.401Z,34.34
2023-05-22T08:30:49.443Z,34.10
2023-05-22T08:31:49.574Z,34.03
2023-05-22T08:32:49.859Z,34.05
2023-05-22T08:33:49.618Z,33.98
2023-05-22T08:34:49.673Z,33.90
2023-05-22T08:35:49.686Z,33.72
2023-05-22T08:36:49.727Z,33.71
2023-05-22T08:37:49.779Z,33.65
2023-05-22T08:38:50.329Z,33.71
2023-05-22T08:39:49.880Z,33.61
2023-05-22T08:40:50.014Z,33.45
2023-05-22T08:41:49.977Z,33.56
2023-05-22T08:43:05.621Z,33.58
2023-05-22T08:43:51.455Z,33.49
2023-05-22T08:44:57.399Z,33.61
2023-05-22T08:45:50.000Z,33.64
2023-05-22T08:46:49.991Z,33.74
2023-05-22T08:47:50.402Z,33.84
2023-05-22T08:48:49.932Z,33.81
2023-05-22T08:49:49.919Z,34.22
2023-05-22T08:50:49.921Z,34.30
2023-05-22T08:51:49.892Z,34.49
2023-05-22T08:52:50.336Z,34.29
2023-05-22T08:53:49.852Z,34.30
2023-05-22T08:54:49.843Z,34.34
2023-05-22T08:55:49.820Z,34.31
2023-05-22T08:56:56.616Z,34.35
2023-05-22T08:57:49.835Z,34.44
2023-05-22T08:58:49.870Z,34.43
2023-05-22T08:59:49.930Z,34.29
2023-05-22T09:00:49.780Z,34.29
2023-05-22T09:01:49.724Z,34.21
2023-05-22T09:02:49.988Z,33.96
2023-05-22T09:03:49.908Z,33.91
2023-05-22T09:04:49.779Z,34.03
2023-05-22T09:05:49.656Z,33.95
2023-05-22T09:06:49.648Z,33.96
2023-05-22T09:07:49.843Z,33.99
2023-05-22T09:08:51.486Z,34.00
2023-05-22T09:09:49.847Z,33.99
2023-05-22T09:10:50.567Z,34.01
2023-05-22T09:11:49.849Z,33.92
2023-05-22T09:12:49.527Z,33.81
2023-05-22T09:13:49.507Z,33.83
2023-05-22T09:14:50.483Z,33.89
2023-05-22T09:15:49.498Z,33.75
2023-05-22T09:16:49.509Z,33.60
2023-05-22T09:17:49.480Z,33.56
2023-05-22T09:18:49.468Z,33.54
2023-05-22T09:19:49.402Z,33.49
2023-05-22T09:20:49.857Z,33.26
2023-05-22T09:21:49.859Z,33.34
2023-05-22T09:22:49.332Z,33.22
2023-05-22T09:23:49.319Z,33.19
2023-05-22T09:24:49.314Z,33.26
2023-05-22T09:25:49.738Z,33.22
2023-05-22T09:26:49.349Z,33.16
2023-05-22T09:27:49.352Z,33.24
2023-05-22T09:28:49.861Z,33.29
2023-05-22T09:29:49.376Z,33.26
2023-05-22T09:30:49.396Z,33.33
2023-05-22T09:31:49.532Z,33.45
2023-05-22T09:32:49.454Z,33.47
2023-05-22T09:33:49.853Z,33.23
2023-05-22T09:35:49.366Z,32.94
2023-05-22T09:36:49.375Z,32.80
2023-05-22T09:37:49.338Z,32.61
2023-05-22T09:38:49.347Z,32.70
2023-05-22T09:39:49.292Z,32.93
2023-05-22T09:40:50.350Z,33.01
2023-05-22T09:41:52.439Z,33.00
2023-05-22T09:42:52.422Z,32.97
2023-05-22T09:43:52.564Z,32.95
2023-05-22T09:44:52.377Z,33.18
2023-05-22T09:45:52.383Z,33.32
2023-05-22T09:46:49.544Z,33.44
2023-05-22T09:47:49.209Z,33.52
2023-05-22T09:48:49.082Z,33.52
2023-05-22T09:49:49.050Z,33.49
2023-05-22T09:50:49.045Z,33.64
2023-05-22T09:51:49.526Z,33.56
2023-05-22T09:52:48.969Z,33.50
2023-05-22T09:53:49.382Z,33.56
2023-05-22T09:54:48.911Z,33.49
2023-05-22T09:55:48.878Z,33.37
2023-05-22T09:56:48.879Z,33.45
2023-05-22T09:57:48.869Z,33.32
2023-05-22T09:58:51.986Z,33.41
2023-05-22T09:59:48.799Z,33.29
2023-05-22T10:00:48.757Z,33.27
2023-05-22T10:01:48.744Z,33.21
2023-05-22T10:02:48.700Z,33.21
2023-05-22T10:03:49.576Z,33.13
2023-05-22T10:04:48.651Z,33.07
2023-05-22T10:05:48.604Z,33.11
2023-05-22T10:07:20.375Z,32.99
2023-05-22T10:07:48.548Z,32.96
2023-05-22T10:08:48.516Z,33.06
2023-05-22T10:09:48.927Z,32.97
2023-05-22T10:10:48.476Z,32.99
2023-05-22T10:11:48.466Z,32.99
2023-05-22T10:12:48.880Z,32.92
2023-05-22T10:13:48.386Z,32.88
2023-05-22T10:14:48.380Z,32.82
2023-05-22T10:15:48.351Z,32.84
2023-05-22T10:16:48.311Z,32.85
2023-05-22T10:17:48.476Z,32.91
2023-05-22T10:18:48.295Z,32.75
2023-05-22T10:19:48.496Z,32.85
2023-05-22T10:20:48.199Z,32.74
2023-05-22T10:21:48.171Z,32.70
2023-05-22T10:22:48.145Z,32.77
2023-05-22T10:23:48.109Z,32.49
2023-05-22T10:24:48.448Z,32.78
2023-05-22T10:25:48.062Z,32.58
2023-05-22T10:26:48.028Z,32.89
2023-05-22T10:27:48.380Z,33.12
2023-05-22T10:28:47.992Z,33.02
2023-05-22T10:29:47.947Z,33.02
2023-05-22T10:30:47.916Z,33.05
2023-05-22T10:31:47.899Z,33.20
2023-05-22T10:32:47.927Z,33.34
2023-05-22T10:33:47.953Z,33.05
2023-05-22T10:34:47.833Z,33.16
2023-05-22T10:35:47.900Z,33.00
2023-05-22T10:36:48.353Z,32.85
2023-05-22T10:37:47.715Z,32.84
2023-05-22T10:38:47.690Z,33.00
2023-05-22T10:39:47.883Z,32.66
2023-05-22T10:40:47.788Z,32.47
2023-05-22T10:42:19.398Z,32.39
2023-05-22T10:42:47.554Z,32.34
2023-05-22T10:43:47.525Z,32.44
2023-05-22T10:44:47.490Z,32.73
2023-05-22T10:45:47.909Z,32.66
2023-05-22T10:46:47.429Z,32.70
2023-05-22T10:47:47.461Z,32.39
2023-05-22T10:48:50.594Z,32.20
2023-05-22T10:49:47.389Z,31.93
2023-05-22T10:50:47.313Z,32.08
2023-05-22T10:51:47.407Z,31.83
2023-05-22T10:52:47.251Z,31.77
2023-05-22T10:53:47.234Z,31.16
2023-05-22T10:54:47.200Z,31.61
2023-05-22T10:55:47.161Z,31.46
2023-05-22T10:56:47.169Z,31.56
2023-05-22T10:57:47.175Z,31.78
2023-05-22T10:58:47.891Z,31.56
2023-05-22T10:59:47.046Z,31.51
2023-05-22T11:00:47.009Z,31.70
2023-05-22T11:01:47.027Z,31.38
2023-05-22T11:02:47.477Z,31.45
2023-05-22T11:03:47.450Z,31.41
2023-05-22T11:04:46.948Z,31.41
2023-05-22T11:05:54.252Z,31.27
2023-05-22T11:07:18.742Z,31.10
2023-05-22T11:07:46.791Z,31.10
2023-05-22T11:08:46.752Z,31.04
2023-05-22T11:09:46.721Z,31.04
2023-05-22T11:10:46.682Z,30.97
2023-05-22T11:11:46.676Z,31.12
2023-05-22T11:12:46.898Z,31.05
2023-05-22T11:13:46.652Z,31.14
2023-05-22T11:14:46.899Z,31.17
2023-05-22T11:15:49.762Z,31.37
2023-05-22T11:16:46.550Z,31.49
2023-05-22T11:17:46.518Z,31.26
2023-05-22T11:18:47.352Z,31.26
2023-05-22T11:19:46.956Z,30.99
2023-05-22T11:20:46.410Z,30.83
2023-05-22T11:21:46.369Z,30.70
2023-05-22T11:22:46.574Z,30.44
2023-05-22T11:23:46.306Z,30.80
2023-05-22T11:24:46.413Z,30.72
2023-05-22T11:25:46.265Z,31.07
2023-05-22T11:26:47.488Z,31.09
2023-05-22T11:27:46.190Z,31.19
2023-05-22T11:28:46.196Z,31.05
2023-05-22T11:29:46.410Z,31.33
2023-05-22T11:30:46.156Z,31.20
2023-05-22T11:31:46.134Z,30.89
2023-05-22T11:32:53.523Z,31.10
2023-05-22T11:33:46.419Z,31.27
2023-05-22T11:34:47.683Z,31.21
2023-05-22T11:35:46.066Z,31.37
2023-05-22T11:36:45.919Z,31.35
2023-05-22T11:37:45.892Z,31.34
2023-05-22T11:38:46.056Z,31.35
2023-05-22T11:39:45.822Z,31.00
2023-05-22T11:40:45.814Z,31.00
2023-05-22T11:41:45.790Z,30.71
2023-05-22T11:42:45.799Z,30.89
2023-05-22T11:43:45.719Z,31.13
2023-05-22T11:44:45.677Z,31.13
2023-05-22T11:45:45.654Z,30.69
2023-05-22T11:46:45.810Z,30.52
2023-05-22T11:47:45.631Z,30.22
2023-05-22T11:48:45.922Z,30.51
2023-05-22T11:49:45.579Z,31.07
2023-05-22T11:50:45.895Z,31.56
2023-05-22T11:51:45.584Z,31.41
2023-05-22T11:52:45.456Z,32.00
2023-05-22T11:53:45.919Z,32.33
2023-05-22T11:54:45.526Z,31.38
2023-05-22T11:55:45.401Z,30.55
2023-05-22T11:56:45.329Z,30.33
2023-05-22T11:57:45.421Z,30.30
2023-05-22T11:58:45.264Z,30.33
2023-05-22T11:59:45.272Z,30.39
2023-05-22T12:00:45.221Z,31.40
2023-05-22T12:01:48.380Z,31.58
2023-05-22T12:02:46.045Z,31.97
2023-05-22T12:03:45.240Z,31.58
2023-05-22T12:04:48.278Z,30.92
2023-05-22T12:05:45.064Z,30.96
2023-05-22T12:06:45.090Z,30.73
2023-05-22T12:07:45.427Z,30.92
2023-05-22T12:08:45.426Z,31.03
2023-05-22T12:09:44.946Z,30.77
2023-05-22T12:10:45.540Z,30.84
2023-05-22T12:11:44.886Z,30.74
2023-05-22T12:12:44.921Z,30.80
2023-05-22T12:13:44.827Z,30.78
2023-05-22T12:14:44.796Z,31.23
2023-05-22T12:15:44.770Z,31.66
2023-05-22T12:16:44.873Z,31.19
2023-05-22T12:17:44.743Z,31.34
2023-05-22T12:18:44.993Z,31.47
2023-05-22T12:19:44.624Z,31.40
2023-05-22T12:20:44.613Z,31.29
2023-05-22T12:21:44.566Z,31.43
2023-05-22T12:22:45.000Z,31.40
2023-05-22T12:23:44.505Z,31.46
2023-05-22T12:24:44.461Z,31.40
2023-05-22T12:25:44.432Z,31.30
2023-05-22T12:26:44.525Z,31.09
2023-05-22T12:27:44.989Z,30.91
2023-05-22T12:28:44.439Z,30.89
2023-05-22T12:29:44.307Z,30.70
2023-05-22T12:30:44.465Z,30.83
2023-05-22T12:32:43.242Z,30.70
2023-05-22T12:33:44.449Z,30.86
2023-05-22T12:34:44.151Z,30.83
2023-05-22T12:35:44.112Z,31.02
2023-05-22T12:36:44.075Z,30.95
2023-05-22T12:37:44.041Z,30.76
2023-05-22T12:38:44.427Z,30.60
2023-05-22T12:39:43.965Z,30.54
2023-05-22T12:40:43.941Z,30.69
2023-05-22T12:41:43.897Z,30.53
2023-05-22T12:42:43.977Z,30.51
2023-05-22T12:43:44.274Z,30.58
2023-05-22T12:44:43.777Z,30.66
2023-05-22T12:45:43.736Z,30.62
2023-05-22T12:46:43.766Z,30.73
2023-05-22T12:47:43.678Z,30.84
2023-05-22T12:48:43.928Z,30.97
2023-05-22T12:49:43.583Z,31.11
2023-05-22T12:50:43.545Z,31.16
2023-05-22T12:51:43.524Z,31.29
2023-05-22T12:52:43.468Z,31.49
2023-05-22T12:53:43.943Z,31.40
2023-05-22T12:54:43.417Z,31.43
2023-05-22T12:55:43.376Z,31.53
2023-05-22T12:56:43.340Z,31.62
2023-05-22T12:57:43.306Z,31.65
2023-05-22T12:58:43.572Z,31.53